D09 weather

Bottineau Municipal Airport
Bottineau, North Dakota, United States

Public forecast

Using degrees Fahrenheit for public forecast. Weather courtesy of forecast.io.

METAR (pilot weather report)

Report is more than 6 hours old.

Closest report is Rugby Municipal Airport, 30.7 nm (56.8 km) SSE. Retrieved 2019/05/20 17:35 UTC (5 days ago):

KRUG 201735Z AUTO 09009G16KT 10SM FEW065 16/M00 A3012 RMK AO2

TAF (pilot weather forecast)

Forecast is more than 12 hours old.

Closest forecast is Minot Air Force Base, 44.9 nm (83.1 km) WSW. Retrieved 2019/05/23 17:09 UTC (2 days ago):

TAF KMIB 231700Z 2317/2423 02012KT 9999 FEW080 QNH3000INS BECMG 2406/2407 06010KT 9999 OVC030 QNH2985INS BECMG 2409/2410 04012KT 8000 -RA SCT010 BKN020 OVC030 QNH2960INS TX21/2322Z TN06/2410Z